createdAt,value
2023-05-01T00:02:01.902Z,85.33
2023-05-01T00:04:05.136Z,85.41
2023-05-01T00:06:08.902Z,86.71
2023-05-01T00:08:12.090Z,86.68
2023-05-01T00:10:15.092Z,86.19
2023-05-01T00:12:18.256Z,86.19
2023-05-01T00:14:21.287Z,86.99
2023-05-01T00:16:24.354Z,86.45
2023-05-01T00:18:31.029Z,85.21
2023-05-01T00:20:34.065Z,85.27
2023-05-01T00:22:37.040Z,86.84
2023-05-01T00:24:40.091Z,86.48
2023-05-01T00:26:43.170Z,85.60
2023-05-01T00:28:46.287Z,86.34
2023-05-01T00:30:49.274Z,87.33
2023-05-01T00:32:52.450Z,85.38
2023-05-01T00:34:57.733Z,85.90
2023-05-01T00:37:00.861Z,87.19
2023-05-01T00:39:03.927Z,85.61
2023-05-01T00:41:06.949Z,86.93
2023-05-01T00:43:09.954Z,85.67
2023-05-01T00:45:14.350Z,87.08
2023-05-01T00:47:17.437Z,85.27
2023-05-01T00:49:20.509Z,86.89
2023-05-01T00:51:25.480Z,85.26
2023-05-01T00:53:28.911Z,86.36
2023-05-01T00:55:33.119Z,87.05
2023-05-01T00:57:36.488Z,86.92
2023-05-01T00:59:39.688Z,86.45
2023-05-01T01:01:43.423Z,86.83
2023-05-01T01:03:46.554Z,87.95
2023-05-01T01:05:55.283Z,88.01
2023-05-01T01:08:07.064Z,87.38
2023-05-01T01:10:19.260Z,88.19
2023-05-01T01:12:26.290Z,87.24
2023-05-01T01:14:34.814Z,88.35
2023-05-01T01:16:43.533Z,88.06
2023-05-01T01:18:51.666Z,87.15
2023-05-01T01:20:57.800Z,86.57
2023-05-01T01:23:15.089Z,88.30
2023-05-01T01:25:54.374Z,86.75
2023-05-01T01:28:12.319Z,87.18
2023-05-01T01:30:44.999Z,86.53
2023-05-01T01:33:10.314Z,87.97
2023-05-01T01:35:21.798Z,86.43
2023-05-01T01:37:27.295Z,87.40
2023-05-01T01:39:34.740Z,86.59
2023-05-01T01:41:39.881Z,87.21
2023-05-01T01:43:46.248Z,84.34
2023-05-01T01:45:54.185Z,86.10
2023-05-01T01:47:58.065Z,84.34
2023-05-01T01:50:04.313Z,84.07
2023-05-01T01:52:09.379Z,84.78
2023-05-01T01:54:14.534Z,82.60
2023-05-01T01:56:19.127Z,83.35
2023-05-01T01:58:26.223Z,81.93
2023-05-01T02:00:29.639Z,83.11
2023-05-01T02:02:33.097Z,83.55
2023-05-01T02:04:37.316Z,83.76
2023-05-01T02:06:41.134Z,81.12
2023-05-01T02:08:48.295Z,82.28
2023-05-01T02:10:51.892Z,81.78
2023-05-01T02:12:56.421Z,81.03
2023-05-01T02:15:00.013Z,81.38
2023-05-01T02:17:03.703Z,81.86
2023-05-01T02:19:06.946Z,81.77
2023-05-01T02:21:10.817Z,82.20
2023-05-01T02:23:14.120Z,81.09
2023-05-01T02:25:18.560Z,80.51
2023-05-01T02:27:24.404Z,81.39
2023-05-01T02:29:27.485Z,81.24
2023-05-01T02:31:30.533Z,81.13
2023-05-01T02:33:33.709Z,81.79
2023-05-01T02:35:40.800Z,80.67
2023-05-01T02:37:44.232Z,83.38
2023-05-01T02:39:47.311Z,81.74
2023-05-01T02:41:54.255Z,83.08
2023-05-01T02:44:01.741Z,82.37
2023-05-01T02:46:05.625Z,83.05
2023-05-01T02:48:11.380Z,82.37
2023-05-01T02:50:15.418Z,82.92
2023-05-01T02:52:19.843Z,81.94
2023-05-01T02:54:25.880Z,81.31
2023-05-01T02:56:29.468Z,82.88
2023-05-01T02:58:34.445Z,82.17
2023-05-01T03:00:37.431Z,81.35
2023-05-01T03:02:40.681Z,82.67
2023-05-01T03:04:44.003Z,82.04
2023-05-01T03:06:47.238Z,80.98
2023-05-01T03:08:50.302Z,80.80
2023-05-01T03:10:53.298Z,81.47
2023-05-01T03:12:57.416Z,80.70
2023-05-01T03:15:01.901Z,78.93
2023-05-01T03:17:07.136Z,79.80
2023-05-01T03:19:10.505Z,79.04
2023-05-01T03:21:14.391Z,80.10
2023-05-01T03:23:17.384Z,81.16
2023-05-01T03:25:20.511Z,79.11
2023-05-01T03:27:24.191Z,80.86
2023-05-01T03:29:27.830Z,81.40
2023-05-01T03:31:32.526Z,79.58
2023-05-01T03:33:36.453Z,77.85
2023-05-01T03:35:39.852Z,79.86
2023-05-01T03:37:43.068Z,78.26
2023-05-01T03:39:47.984Z,79.24
2023-05-01T03:42:09.356Z,78.49
2023-05-01T03:44:16.782Z,80.22
2023-05-01T03:46:21.384Z,79.72
2023-05-01T03:48:26.006Z,77.76
2023-05-01T03:50:29.023Z,78.36
2023-05-01T03:52:32.137Z,78.37
2023-05-01T03:54:35.571Z,77.21
2023-05-01T03:56:50.298Z,78.85
2023-05-01T03:58:55.377Z,75.67
2023-05-01T04:01:00.857Z,77.09
2023-05-01T04:03:04.248Z,78.57
2023-05-01T04:05:10.984Z,76.51
2023-05-01T04:07:16.168Z,76.55
2023-05-01T04:09:20.959Z,75.43
2023-05-01T04:11:24.140Z,76.90
2023-05-01T04:13:27.190Z,75.86
2023-05-01T04:15:31.219Z,76.36
2023-05-01T04:17:34.486Z,75.70
2023-05-01T04:19:37.993Z,75.72
2023-05-01T04:21:42.430Z,75.19
2023-05-01T04:23:45.547Z,75.13
2023-05-01T04:25:48.540Z,75.08
2023-05-01T04:27:53.863Z,75.65
2023-05-01T04:29:57.843Z,76.40
2023-05-01T04:32:01.715Z,76.01
2023-05-01T04:34:04.991Z,77.35
2023-05-01T04:36:08.667Z,77.48
2023-05-01T04:38:13.053Z,76.54
2023-05-01T04:40:17.682Z,75.18
2023-05-01T04:42:20.724Z,75.66
2023-05-01T04:44:23.880Z,75.74
2023-05-01T04:46:27.285Z,76.88
2023-05-01T04:48:30.349Z,75.43
2023-05-01T04:50:33.383Z,76.33
2023-05-01T04:52:36.934Z,76.88
2023-05-01T04:54:42.097Z,75.89
2023-05-01T04:56:45.326Z,77.18
2023-05-01T04:58:48.446Z,77.61
2023-05-01T05:00:55.747Z,77.66
2023-05-01T05:03:00.321Z,75.97
2023-05-01T05:05:03.471Z,77.91
2023-05-01T05:07:09.184Z,77.18
2023-05-01T05:09:45.463Z,79.27
2023-05-01T05:11:48.827Z,78.98
2023-05-01T05:13:59.405Z,80.00
2023-05-01T05:16:02.622Z,79.65
2023-05-01T05:18:06.154Z,80.52
2023-05-01T05:20:10.281Z,79.42
2023-05-01T05:22:13.517Z,79.77
2023-05-01T05:24:36.792Z,78.17
2023-05-01T05:26:41.561Z,79.29
2023-05-01T05:28:45.112Z,78.11
2023-05-01T05:30:49.114Z,78.29
2023-05-01T05:32:56.004Z,77.46
2023-05-01T05:34:59.350Z,79.36
2023-05-01T05:37:03.482Z,77.80
2023-05-01T05:39:06.822Z,77.13
2023-05-01T05:41:10.159Z,78.21
2023-05-01T05:43:15.310Z,78.02
2023-05-01T05:45:18.726Z,78.26
2023-05-01T05:47:22.454Z,78.00
2023-05-01T05:49:25.633Z,77.75
2023-05-01T05:51:28.841Z,76.65
2023-05-01T05:53:32.816Z,75.64
2023-05-01T05:55:35.888Z,76.33
2023-05-01T05:57:40.966Z,75.68
2023-05-01T05:59:45.759Z,76.02
2023-05-01T06:01:50.726Z,74.45
2023-05-01T06:03:53.969Z,74.48
2023-05-01T06:05:59.063Z,74.20
2023-05-01T06:08:02.235Z,75.09
2023-05-01T06:10:05.678Z,73.35
2023-05-01T06:12:09.026Z,73.38
2023-05-01T06:14:12.693Z,74.61
2023-05-01T06:16:17.198Z,75.36
2023-05-01T06:18:20.588Z,75.45
2023-05-01T06:20:23.933Z,75.05
2023-05-01T06:22:27.434Z,75.18
2023-05-01T06:24:49.136Z,73.95
2023-05-01T06:26:52.474Z,73.59
2023-05-01T06:28:55.794Z,73.31
2023-05-01T06:30:59.453Z,73.98
2023-05-01T06:33:04.896Z,73.79
2023-05-01T06:35:09.708Z,73.11
2023-05-01T06:37:12.995Z,73.22
2023-05-01T06:39:16.228Z,74.01
2023-05-01T06:41:19.576Z,73.62
2023-05-01T06:43:22.835Z,73.98
2023-05-01T06:45:26.277Z,74.33
2023-05-01T06:47:29.431Z,73.61
2023-05-01T06:49:33.940Z,74.08
2023-05-01T06:51:37.676Z,73.21
2023-05-01T06:53:41.635Z,74.80
2023-05-01T06:55:44.788Z,73.48
2023-05-01T06:57:47.924Z,74.52
2023-05-01T06:59:51.029Z,75.11
2023-05-01T07:01:54.463Z,73.66
2023-05-01T07:03:57.649Z,74.07
2023-05-01T07:06:02.220Z,74.58
2023-05-01T07:08:06.617Z,74.45
2023-05-01T07:10:10.416Z,75.70
2023-05-01T07:12:13.588Z,74.18
2023-05-01T07:14:16.754Z,74.47
2023-05-01T07:16:20.733Z,74.95
2023-05-01T07:18:26.420Z,74.98
2023-05-01T07:20:30.257Z,73.54
2023-05-01T07:22:34.871Z,74.11
2023-05-01T07:24:38.008Z,74.18
2023-05-01T07:26:41.019Z,74.36
2023-05-01T07:28:44.055Z,73.85
2023-05-01T07:30:47.200Z,74.61
2023-05-01T07:32:50.667Z,74.23
2023-05-01T07:34:54.878Z,74.02
2023-05-01T07:36:57.932Z,74.11
2023-05-01T07:39:02.296Z,73.92
2023-05-01T07:41:05.574Z,74.51
2023-05-01T07:43:11.249Z,74.50
2023-05-01T07:45:14.761Z,74.32
2023-05-01T07:47:17.846Z,74.69
2023-05-01T07:49:21.003Z,74.43
2023-05-01T07:51:24.371Z,73.95
2023-05-01T07:53:27.539Z,74.02
2023-05-01T07:55:32.112Z,74.37
2023-05-01T07:57:36.382Z,74.43
2023-05-01T07:59:39.560Z,74.57
2023-05-01T08:01:42.725Z,75.24
2023-05-01T08:03:46.991Z,76.24
2023-05-01T08:05:52.269Z,76.87
2023-05-01T08:07:55.540Z,73.82
2023-05-01T08:10:00.471Z,74.13
2023-05-01T08:12:05.960Z,73.83
2023-05-01T08:14:09.281Z,73.91
2023-05-01T08:16:12.586Z,75.06
2023-05-01T08:18:20.439Z,73.86
2023-05-01T08:20:23.837Z,74.07
2023-05-01T08:22:26.915Z,73.86
2023-05-01T08:24:30.476Z,73.40
2023-05-01T08:26:33.685Z,73.72
2023-05-01T08:28:38.624Z,74.28
2023-05-01T08:30:41.820Z,74.20
2023-05-01T08:32:44.979Z,75.32
2023-05-01T08:34:48.206Z,74.78
2023-05-01T08:36:51.369Z,75.05
2023-05-01T08:38:54.530Z,75.07
2023-05-01T08:40:59.691Z,74.53
2023-05-01T08:43:03.203Z,75.66
2023-05-01T08:45:10.241Z,75.02
2023-05-01T08:47:17.164Z,76.50
2023-05-01T08:49:21.075Z,76.36
2023-05-01T08:51:25.337Z,77.04
2023-05-01T08:53:28.712Z,76.09
2023-05-01T08:55:32.290Z,74.62
2023-05-01T08:57:37.598Z,74.68
2023-05-01T08:59:42.041Z,74.73
2023-05-01T09:01:47.987Z,74.82
2023-05-01T09:03:52.562Z,75.37
2023-05-01T09:05:55.956Z,74.54
2023-05-01T09:07:59.829Z,74.73
2023-05-01T09:10:03.247Z,75.59
2023-05-01T09:12:13.151Z,75.26
2023-05-01T09:14:17.272Z,75.27
2023-05-01T09:16:20.445Z,73.88
2023-05-01T09:18:25.426Z,74.22
2023-05-01T09:20:29.822Z,76.00
2023-05-01T09:22:34.089Z,75.71
2023-05-01T09:24:37.290Z,75.74
2023-05-01T09:26:41.946Z,73.63
2023-05-01T09:28:46.288Z,71.71
2023-05-01T09:30:49.490Z,73.38
2023-05-01T09:33:05.702Z,75.25
2023-05-01T09:35:14.738Z,75.72
2023-05-01T09:37:28.434Z,76.30
2023-05-01T09:39:32.326Z,75.65
2023-05-01T09:41:36.610Z,75.31
2023-05-01T09:43:40.350Z,76.35
2023-05-01T09:45:43.876Z,74.43
2023-05-01T09:47:47.720Z,72.94
2023-05-01T09:49:50.913Z,74.39
2023-05-01T09:52:12.235Z,73.88
2023-05-01T09:54:20.886Z,73.37
2023-05-01T09:56:24.108Z,73.49
2023-05-01T09:58:30.051Z,73.30
2023-05-01T10:00:33.584Z,71.88
2023-05-01T10:02:39.300Z,71.30
2023-05-01T10:04:43.267Z,72.38
2023-05-01T10:06:48.075Z,72.01
2023-05-01T10:08:52.618Z,71.41
2023-05-01T10:11:02.658Z,71.30
2023-05-01T10:13:15.091Z,70.72
2023-05-01T10:15:25.555Z,70.96
2023-05-01T10:17:30.051Z,71.03
2023-05-01T10:19:33.706Z,71.81
2023-05-01T10:21:37.056Z,71.31
2023-05-01T10:23:40.298Z,72.87
2023-05-01T10:25:45.450Z,72.83
2023-05-01T10:27:49.135Z,71.23
2023-05-01T10:29:54.236Z,70.21
2023-05-01T10:31:57.780Z,70.21
2023-05-01T10:34:01.751Z,68.65
2023-05-01T10:36:05.908Z,69.64
2023-05-01T10:38:11.275Z,70.87
2023-05-01T10:40:47.313Z,73.04
2023-05-01T10:43:15.915Z,74.02
2023-05-01T10:45:32.403Z,71.32
2023-05-01T10:47:45.841Z,69.07
2023-05-01T10:50:05.977Z,69.65
2023-05-01T10:52:09.253Z,70.74
2023-05-01T10:54:34.769Z,69.52
2023-05-01T10:56:45.315Z,69.83
2023-05-01T10:58:59.366Z,67.59
2023-05-01T11:01:33.503Z,68.56
2023-05-01T11:03:36.853Z,68.62
2023-05-01T11:06:07.600Z,68.49
2023-05-01T11:08:32.451Z,69.21
2023-05-01T11:10:35.676Z,67.79
2023-05-01T11:12:53.520Z,66.93
2023-05-01T11:15:08.090Z,67.51
2023-05-01T11:17:11.691Z,64.95
2023-05-01T11:19:46.152Z,66.99
2023-05-01T11:21:50.002Z,66.03
2023-05-01T11:23:53.253Z,65.09
2023-05-01T11:26:04.889Z,67.28
2023-05-01T11:28:09.849Z,66.31
2023-05-01T11:30:14.019Z,65.73
2023-05-01T11:32:19.947Z,66.02
2023-05-01T11:34:23.542Z,65.81
2023-05-01T11:36:27.158Z,66.09
2023-05-01T11:38:30.730Z,66.61
2023-05-01T11:40:35.095Z,67.68
2023-05-01T11:42:38.507Z,67.74
2023-05-01T11:44:43.196Z,70.75
2023-05-01T11:46:46.278Z,66.88
2023-05-01T11:48:50.493Z,65.58
2023-05-01T11:50:53.570Z,66.62
2023-05-01T11:52:56.899Z,66.79
2023-05-01T11:55:00.224Z,69.54
2023-05-01T11:57:03.569Z,67.72
2023-05-01T11:59:14.059Z,67.23
2023-05-01T12:01:18.675Z,67.87
2023-05-01T12:03:23.326Z,68.42
2023-05-01T12:05:27.008Z,70.62
2023-05-01T12:07:30.213Z,69.16
2023-05-01T12:09:33.861Z,66.40
2023-05-01T12:11:37.703Z,66.55
2023-05-01T12:13:41.943Z,67.59
2023-05-01T12:15:47.244Z,66.95
2023-05-01T12:17:52.361Z,68.44
2023-05-01T12:19:55.509Z,68.03
2023-05-01T12:22:08.089Z,66.55
2023-05-01T12:24:12.009Z,66.58
2023-05-01T12:26:18.511Z,66.33
2023-05-01T12:28:21.658Z,66.46
2023-05-01T12:30:26.755Z,66.11
2023-05-01T12:32:32.431Z,62.07
2023-05-01T12:34:37.090Z,63.06
2023-05-01T12:36:41.387Z,65.87
2023-05-01T12:38:56.825Z,66.73
2023-05-01T12:41:01.908Z,67.24
2023-05-01T12:43:05.236Z,66.32
2023-05-01T12:45:12.607Z,67.25
2023-05-01T12:47:16.105Z,67.38
2023-05-01T12:49:19.826Z,67.86
2023-05-01T12:51:41.714Z,67.36
2023-05-01T12:53:45.595Z,66.38
2023-05-01T12:55:50.277Z,65.40
2023-05-01T12:57:54.764Z,66.69
2023-05-01T13:00:01.745Z,65.75
2023-05-01T13:02:10.907Z,65.61
2023-05-01T13:04:14.118Z,64.69
2023-05-01T13:06:17.306Z,64.58
2023-05-01T13:08:29.655Z,64.01
2023-05-01T13:10:33.187Z,64.36
2023-05-01T13:12:45.208Z,65.56
2023-05-01T13:14:48.662Z,64.32
2023-05-01T13:16:52.970Z,63.52
2023-05-01T13:18:56.362Z,64.87
2023-05-01T13:21:09.672Z,65.06
2023-05-01T13:23:13.560Z,66.18
2023-05-01T13:25:20.673Z,65.58
2023-05-01T13:27:24.055Z,64.16
2023-05-01T13:29:28.397Z,63.80
2023-05-01T13:31:31.871Z,64.14
2023-05-01T13:33:34.993Z,64.15
2023-05-01T13:35:39.168Z,65.29
2023-05-01T13:37:42.506Z,64.69
2023-05-01T13:39:47.657Z,65.04
2023-05-01T13:41:55.269Z,63.67
2023-05-01T13:43:58.799Z,64.16
2023-05-01T13:46:02.036Z,64.51
2023-05-01T13:48:06.128Z,65.43
2023-05-01T13:50:14.647Z,65.03
2023-05-01T13:52:19.377Z,63.49
2023-05-01T13:54:22.443Z,63.75
2023-05-01T13:56:26.523Z,65.26
2023-05-01T13:58:31.251Z,65.95
2023-05-01T14:00:34.382Z,65.23
2023-05-01T14:02:45.366Z,66.48
2023-05-01T14:04:48.879Z,66.15
2023-05-01T14:06:52.318Z,66.18
2023-05-01T14:08:59.858Z,65.98
2023-05-01T14:11:05.895Z,66.00
2023-05-01T14:13:11.850Z,64.86
2023-05-01T14:15:16.288Z,65.15
2023-05-01T14:17:19.542Z,64.80
2023-05-01T14:19:22.968Z,65.43
2023-05-01T14:21:28.462Z,66.56
2023-05-01T14:23:33.414Z,66.04
2023-05-01T14:25:37.469Z,66.88
2023-05-01T14:27:40.720Z,65.84
2023-05-01T14:29:44.736Z,64.66
2023-05-01T14:31:52.560Z,66.32
2023-05-01T14:33:59.919Z,67.42
2023-05-01T14:36:03.049Z,66.17
2023-05-01T14:38:13.018Z,66.25
2023-05-01T14:40:16.308Z,65.91
2023-05-01T14:42:19.405Z,65.23
2023-05-01T14:44:24.392Z,63.89
2023-05-01T14:46:31.135Z,64.88
2023-05-01T14:48:37.815Z,65.36
2023-05-01T14:50:41.201Z,64.43
2023-05-01T14:52:44.352Z,64.23
2023-05-01T14:54:48.331Z,65.10
2023-05-01T14:56:51.512Z,63.87
2023-05-01T14:58:56.766Z,61.34
2023-05-01T15:01:00.355Z,63.89
2023-05-01T15:03:05.083Z,63.63
2023-05-01T15:05:10.300Z,62.47
2023-05-01T15:07:13.678Z,62.06
2023-05-01T15:09:16.807Z,62.91
2023-05-01T15:11:21.044Z,61.88
2023-05-01T15:13:24.068Z,62.86
2023-05-01T15:15:27.602Z,65.72
2023-05-01T15:17:32.453Z,62.14
2023-05-01T15:19:35.954Z,63.09
2023-05-01T15:21:41.081Z,62.79
2023-05-01T15:23:45.319Z,63.21
2023-05-01T15:25:50.594Z,63.65
2023-05-01T15:27:53.705Z,62.32
2023-05-01T15:29:57.418Z,63.28
2023-05-01T15:32:10.813Z,63.91
2023-05-01T15:34:15.028Z,63.52
2023-05-01T15:36:18.091Z,62.80
2023-05-01T15:38:22.520Z,64.14
2023-05-01T15:40:25.621Z,64.52
2023-05-01T15:42:28.658Z,65.18
2023-05-01T15:44:32.118Z,65.66
2023-05-01T15:46:35.391Z,65.70
2023-05-01T15:48:38.647Z,65.69
2023-05-01T15:50:41.920Z,63.88
2023-05-01T15:52:45.022Z,63.89
2023-05-01T15:54:49.591Z,62.30
2023-05-01T15:56:52.648Z,61.56
2023-05-01T15:58:56.330Z,61.72
2023-05-01T16:00:59.561Z,61.80
2023-05-01T16:03:03.212Z,62.88
2023-05-01T16:05:07.084Z,63.36
2023-05-01T16:07:10.717Z,64.52
2023-05-01T16:09:14.071Z,64.08
2023-05-01T16:11:18.608Z,65.29
2023-05-01T16:13:21.625Z,65.54
2023-05-01T16:15:24.682Z,66.27
2023-05-01T16:17:27.912Z,66.29
2023-05-01T16:19:32.106Z,64.08
2023-05-01T16:21:35.151Z,63.83
2023-05-01T16:23:39.589Z,65.07
2023-05-01T16:25:43.459Z,61.10
2023-05-01T16:27:47.932Z,62.88
2023-05-01T16:29:51.324Z,62.40
2023-05-01T16:31:54.444Z,62.24
2023-05-01T16:33:57.586Z,62.00
2023-05-01T16:36:00.768Z,62.54
2023-05-01T16:38:03.872Z,62.14
2023-05-01T16:40:10.312Z,61.27
2023-05-01T16:42:14.088Z,62.48
2023-05-01T16:44:20.375Z,62.69
2023-05-01T16:46:23.527Z,61.53
2023-05-01T16:48:26.723Z,61.65
2023-05-01T16:50:29.827Z,62.40
2023-05-01T16:52:32.851Z,62.40
2023-05-01T16:54:36.726Z,62.95
2023-05-01T16:56:39.980Z,62.51
2023-05-01T16:58:43.867Z,62.95
2023-05-01T17:00:48.229Z,62.62
2023-05-01T17:02:53.412Z,63.24
2023-05-01T17:04:56.503Z,63.67
2023-05-01T17:06:59.614Z,64.22
2023-05-01T17:09:02.704Z,64.97
2023-05-01T17:11:07.233Z,65.26
2023-05-01T17:13:10.353Z,65.60
2023-05-01T17:15:13.661Z,67.57
2023-05-01T17:17:18.624Z,66.67
2023-05-01T17:19:21.796Z,66.33
2023-05-01T17:21:25.130Z,66.16
2023-05-01T17:23:29.081Z,66.57
2023-05-01T17:25:32.230Z,66.83
2023-05-01T17:27:35.442Z,66.65
2023-05-01T17:29:39.233Z,67.62
2023-05-01T17:31:42.677Z,67.48
2023-05-01T17:33:47.395Z,68.64
2023-05-01T17:35:50.569Z,75.70
2023-05-01T17:37:53.921Z,78.90
2023-05-01T17:39:57.577Z,80.65
2023-05-01T17:42:02.406Z,81.31
2023-05-01T17:44:05.692Z,81.03
2023-05-01T17:46:09.057Z,82.80
2023-05-01T17:48:12.517Z,82.58
2023-05-01T17:50:17.128Z,83.82
2023-05-01T17:52:20.170Z,82.13
2023-05-01T17:54:23.211Z,83.73
2023-05-01T17:56:27.116Z,83.78
2023-05-01T17:58:30.336Z,83.74
2023-05-01T18:00:33.649Z,84.38
2023-05-01T18:02:36.909Z,85.37
2023-05-01T18:04:40.531Z,86.30
2023-05-01T18:06:45.059Z,86.20
2023-05-01T18:08:49.178Z,85.37
2023-05-01T18:10:52.371Z,86.53
2023-05-01T18:12:55.747Z,85.20
2023-05-01T18:14:59.110Z,85.65
2023-05-01T18:17:02.356Z,85.55
2023-05-01T18:19:05.594Z,84.08
2023-05-01T18:21:08.810Z,86.20
2023-05-01T18:23:13.455Z,85.42
2023-05-01T18:25:17.271Z,86.19
2023-05-01T18:27:20.495Z,84.23
2023-05-01T18:29:23.678Z,86.42
2023-05-01T18:31:26.869Z,86.33
2023-05-01T18:33:30.125Z,85.32
2023-05-01T18:35:33.625Z,83.89
2023-05-01T18:37:36.816Z,84.67
2023-05-01T18:39:41.291Z,83.72
2023-05-01T18:41:44.594Z,85.14
2023-05-01T18:43:47.756Z,84.58
2023-05-01T18:45:51.009Z,84.83
2023-05-01T18:47:54.317Z,84.90
2023-05-01T18:49:57.675Z,86.27
2023-05-01T18:52:01.121Z,86.69
2023-05-01T18:54:05.631Z,86.44
2023-05-01T18:56:10.354Z,84.82
2023-05-01T18:58:13.524Z,85.77
2023-05-01T19:00:17.369Z,85.08
2023-05-01T19:02:20.572Z,83.94
2023-05-01T19:04:23.864Z,84.17
2023-05-01T19:06:27.042Z,85.38
2023-05-01T19:08:31.543Z,86.68
2023-05-01T19:10:36.689Z,84.28
2023-05-01T19:12:42.186Z,86.25
2023-05-01T19:14:45.533Z,83.92
2023-05-01T19:16:49.043Z,83.79
2023-05-01T19:18:52.227Z,84.06
2023-05-01T19:20:55.339Z,85.37
2023-05-01T19:22:58.538Z,84.85
2023-05-01T19:25:01.681Z,85.51
2023-05-01T19:27:04.836Z,85.08
2023-05-01T19:29:09.573Z,84.55
2023-05-01T19:31:14.500Z,85.77
2023-05-01T19:33:17.981Z,85.18
2023-05-01T19:35:21.362Z,85.30
2023-05-01T19:37:24.574Z,85.96
2023-05-01T19:39:28.963Z,85.43
2023-05-01T19:41:32.061Z,86.51
2023-05-01T19:43:35.150Z,86.58
2023-05-01T19:45:39.559Z,85.59
2023-05-01T19:47:42.787Z,86.45
2023-05-01T19:49:46.031Z,83.98
2023-05-01T19:51:49.187Z,85.38
2023-05-01T19:53:52.272Z,84.98
2023-05-01T19:55:55.483Z,85.63
2023-05-01T19:57:58.617Z,86.18
2023-05-01T20:00:01.875Z,84.16
2023-05-01T20:02:14.539Z,86.10
2023-05-01T20:04:17.794Z,85.05
2023-05-01T20:06:21.293Z,84.76
2023-05-01T20:08:24.536Z,85.56
2023-05-01T20:10:27.701Z,85.86
2023-05-01T20:12:32.328Z,84.93
2023-05-01T20:14:35.376Z,86.31
2023-05-01T20:16:38.700Z,84.41
2023-05-01T20:18:43.154Z,85.49
2023-05-01T20:20:46.281Z,85.95
2023-05-01T20:22:53.129Z,85.54
2023-05-01T20:24:56.356Z,86.22
2023-05-01T20:26:59.750Z,86.97
2023-05-01T20:29:03.189Z,86.09
2023-05-01T20:31:09.484Z,86.75
2023-05-01T20:33:13.960Z,85.50
2023-05-01T20:35:18.852Z,86.12
2023-05-01T20:37:21.968Z,86.09
2023-05-01T20:39:25.255Z,86.64
2023-05-01T20:41:29.216Z,87.11
2023-05-01T20:43:32.327Z,87.09
2023-05-01T20:45:35.614Z,86.09
2023-05-01T20:47:39.129Z,86.18
2023-05-01T20:49:42.211Z,86.50
2023-05-01T20:51:46.639Z,85.77
2023-05-01T20:53:49.735Z,86.31
2023-05-01T20:55:52.879Z,86.70
2023-05-01T20:57:56.074Z,86.41
2023-05-01T21:00:00.901Z,86.83
2023-05-01T21:02:05.258Z,87.02
2023-05-01T21:04:08.548Z,87.63
2023-05-01T21:06:11.890Z,87.82
2023-05-01T21:08:16.369Z,88.00
2023-05-01T21:10:19.610Z,87.94
2023-05-01T21:12:22.806Z,88.26
2023-05-01T21:14:25.886Z,87.92
2023-05-01T21:16:28.968Z,88.32
2023-05-01T21:18:34.460Z,88.13
2023-05-01T21:20:37.562Z,87.96
2023-05-01T21:22:41.519Z,87.85
2023-05-01T21:24:46.461Z,87.89
2023-05-01T21:26:50.830Z,87.26
2023-05-01T21:28:53.826Z,87.36
2023-05-01T21:30:56.909Z,87.63
2023-05-01T21:33:00.305Z,87.53
2023-05-01T21:35:03.860Z,87.20
2023-05-01T21:37:09.214Z,87.54
2023-05-01T21:39:12.496Z,87.37
2023-05-01T21:41:16.939Z,87.82
2023-05-01T21:43:20.647Z,87.63
2023-05-01T21:45:23.817Z,87.49
2023-05-01T21:47:27.967Z,86.78
2023-05-01T21:49:31.204Z,87.47
2023-05-01T21:51:34.247Z,87.61
2023-05-01T21:53:37.361Z,88.35
2023-05-01T21:55:40.408Z,88.08
2023-05-01T21:57:44.956Z,88.13
2023-05-01T21:59:48.326Z,88.83
2023-05-01T22:01:51.423Z,88.79
2023-05-01T22:03:54.720Z,88.47
2023-05-01T22:05:58.600Z,89.48
2023-05-01T22:08:01.921Z,88.32
2023-05-01T22:10:05.540Z,88.34
2023-05-01T22:12:08.742Z,89.60
2023-05-01T22:14:13.185Z,88.23
2023-05-01T22:16:16.316Z,89.87
2023-05-01T22:18:19.588Z,89.55
2023-05-01T22:20:23.032Z,89.88
2023-05-01T22:22:26.418Z,88.06
2023-05-01T22:24:29.406Z,88.53
2023-05-01T22:26:32.487Z,89.88
2023-05-01T22:28:35.965Z,90.01
2023-05-01T22:30:40.565Z,89.98
2023-05-01T22:32:43.732Z,88.71
2023-05-01T22:34:46.791Z,87.73
2023-05-01T22:36:49.847Z,88.88
2023-05-01T22:38:52.836Z,88.41
2023-05-01T22:40:55.865Z,87.62
2023-05-01T22:42:59.007Z,87.57
2023-05-01T22:45:02.092Z,88.28
2023-05-01T22:47:07.171Z,89.33
2023-05-01T22:49:10.263Z,90.10
2023-05-01T22:51:13.315Z,89.71
2023-05-01T22:53:16.520Z,90.19
2023-05-01T22:55:19.565Z,88.56
2023-05-01T22:57:22.800Z,88.34
2023-05-01T22:59:25.979Z,88.94
2023-05-01T23:01:29.286Z,90.84
2023-05-01T23:03:35.198Z,91.07
2023-05-01T23:05:40.314Z,90.32
2023-05-01T23:07:44.038Z,90.51
2023-05-01T23:09:47.840Z,89.28
2023-05-01T23:11:51.045Z,89.88
2023-05-01T23:13:54.085Z,88.66
2023-05-01T23:15:57.463Z,89.99
2023-05-01T23:18:00.692Z,90.86
2023-05-01T23:20:08.006Z,90.06
2023-05-01T23:22:13.075Z,88.78
2023-05-01T23:24:18.554Z,90.72
2023-05-01T23:26:26.005Z,90.59
2023-05-01T23:28:29.948Z,91.16
2023-05-01T23:30:33.085Z,90.94
2023-05-01T23:32:36.192Z,89.29
2023-05-01T23:34:40.054Z,90.63
2023-05-01T23:36:46.092Z,89.05
2023-05-01T23:38:49.118Z,89.98
2023-05-01T23:40:52.329Z,89.04
2023-05-01T23:42:56.000Z,90.84
2023-05-01T23:44:59.158Z,90.84
2023-05-01T23:47:02.327Z,90.75
2023-05-01T23:49:05.698Z,90.81
2023-05-01T23:51:08.951Z,90.47
2023-05-01T23:53:13.434Z,90.36
2023-05-01T23:55:16.713Z,89.15
2023-05-01T23:57:19.667Z,88.42
2023-05-01T23:59:22.669Z,89.94
